Time;durP1;ratioP1;P1;durP2;ratioP2;P2;SDS_P1;SDS_P2;PMS_P1;PMS_P2;Temp;Humidity;BMP_temperature;BMP_pressure;BME280_temperature;BME280_humidity;BME280_pressure;Samples;Min_cycle;Max_cycle;Signal;HPM_P1;HPM_P2
2024/01/14 02:30:09;;;;;;;;;;;;;;;;;;;;;
2024/01/14 09:21:17;;;;;;;88.13;59.63;;;6.90;66.90;;;;;;6210455;22;20295;-96
2024/01/14 09:23:54;;;;;;;98.67;58.40;;;6.90;66.80;;;;;;6219155;23;20885;-96
2024/01/14 09:26:34;;;;;;;118.27;59.23;;;7.10;67.10;;;;;;6216357;23;20211;-96
2024/01/14 09:32:27;;;;;;;137.87;121.13;;;6.90;67.00;;;;;;6203598;23;20246;-96
2024/01/14 09:35:03;;;;;;;108.60;84.83;;;6.90;67.30;;;;;;6221262;23;20176;-96
2024/01/14 09:37:43;;;;;;;107.53;71.50;;;6.40;66.50;;;;;;6222315;23;20193;-96
2024/01/14 09:40:17;;;;;;;112.70;73.03;;;7.00;67.10;;;;;;6218755;23;20257;-96
2024/01/14 09:43:09;;;;;;;103.10;68.10;;;6.80;67.40;;;;;;6221248;23;20184;-96
2024/01/14 09:45:41;;;;;;;85.07;56.53;;;6.50;67.00;;;;;;6221170;23;20196;-96
2024/01/14 09:48:25;;;;;;;81.03;54.47;;;6.80;67.50;;;;;;6220149;23;20185;-96
2024/01/14 09:51:21;;;;;;;78.70;55.10;;;6.70;67.50;;;;;;6223275;23;20189;-96
2024/01/14 09:54:12;;;;;;;116.93;82.77;;;6.80;67.80;;;;;;6223575;23;20176;-96
2024/01/14 09:56:50;;;;;;;88.03;57.43;;;6.80;68.00;;;;;;6226691;23;20206;-95
2024/01/14 09:59:23;;;;;;;122.00;81.27;;;6.80;68.00;;;;;;6237992;23;20201;-96
2024/01/14 10:02:04;;;;;;;131.43;90.70;;;6.10;67.10;;;;;;6239129;23;20260;-96
2024/01/14 10:04:33;;;;;;;145.07;69.13;;;6.80;67.80;;;;;;6238675;23;20213;-96
2024/01/14 10:07:17;;;;;;;94.67;70.57;;;6.80;68.30;;;;;;6238761;23;20160;-96
2024/01/14 10:10:10;;;;;;;126.10;88.00;;;6.80;68.60;;;;;;6240614;23;20174;-96
2024/01/14 10:12:59;;;;;;;108.27;61.30;;;6.90;68.60;;;;;;6239642;23;20156;-96
2024/01/14 10:32:59;;;;;;;106.60;73.63;;;6.10;68.00;;;;;;5967697;23;20237;-96
2024/01/14 10:43:33;;;;;;;110.67;75.63;;;7.00;68.60;;;;;;5967336;23;20180;-96
2024/01/14 10:46:11;;;;;;;86.23;55.43;;;7.00;68.70;;;;;;6104379;23;20289;-96
2024/01/14 10:48:45;;;;;;;140.70;71.30;;;7.00;68.40;;;;;;6189606;23;20174;-96
2024/01/14 10:51:18;;;;;;;111.60;76.90;;;7.00;68.10;;;;;;6193432;23;20212;-96
2024/01/14 10:53:56;;;;;;;76.70;49.50;;;6.50;68.20;;;;;;6192817;23;20556;-96
2024/01/14 10:56:33;;;;;;;74.93;49.10;;;7.00;68.60;;;;;;6190602;23;20174;-96
2024/01/14 10:59:02;;;;;;;106.93;72.77;;;6.40;68.00;;;;;;6191821;23;20204;-96
2024/01/14 11:01:42;;;;;;;112.13;63.80;;;7.50;68.90;;;;;;6192923;23;20222;-96
2024/01/14 11:04:19;;;;;;;105.33;69.60;;;7.00;68.60;;;;;;6190885;23;20182;-96
2024/01/14 11:07:05;;;;;;;104.13;55.07;;;7.10;68.70;;;;;;6192571;23;20535;-96
2024/01/14 11:09:33;;;;;;;106.17;66.93;;;7.30;69.00;;;;;;6189878;23;20196;-96
2024/01/14 11:12:15;;;;;;;121.13;80.10;;;7.20;68.40;;;;;;6189580;23;20174;-96
2024/01/14 11:15:01;;;;;;;115.77;85.57;;;7.20;68.60;;;;;;6195801;23;20194;-96
2024/01/14 11:17:55;;;;;;;124.07;84.97;;;7.30;68.50;;;;;;6196151;23;20176;-96
2024/01/14 11:20:38;;;;;;;118.20;80.23;;;7.10;68.60;;;;;;6194033;23;20862;-96
2024/01/14 11:23:27;;;;;;;136.93;88.17;;;7.30;68.60;;;;;;6190184;23;20205;-96
2024/01/14 11:26:03;;;;;;;112.43;80.83;;;6.60;68.00;;;;;;6197959;23;20248;-95
2024/01/14 11:28:38;;;;;;;113.47;69.37;;;7.30;68.30;;;;;;6196059;23;20205;-96
2024/01/14 11:31:18;;;;;;;136.17;88.73;;;7.20;68.10;;;;;;6198784;23;20228;-96
2024/01/14 11:33:56;;;;;;;96.17;61.80;;;7.30;67.90;;;;;;6202435;23;20179;-96
2024/01/14 11:37:01;;;;;;;124.53;73.50;;;8.00;68.70;;;;;;6206183;23;20231;-96
2024/01/14 11:40:01;;;;;;;114.47;73.77;;;7.30;68.70;;;;;;6206262;23;20229;-96
2024/01/14 11:42:45;;;;;;;110.37;73.63;;;7.30;68.70;;;;;;6208840;23;20168;-96
2024/01/14 11:48:18;;;;;;;151.40;77.27;;;7.20;68.90;;;;;;6208702;23;20171;-95
2024/01/14 11:51:03;;;;;;;90.97;67.00;;;6.80;68.20;;;;;;6200578;23;20181;-96
2024/01/14 11:56:39;;;;;;;135.67;85.03;;;7.10;68.90;;;;;;6187340;23;20472;-96
2024/01/14 11:59:20;;;;;;;120.57;93.10;;;7.10;68.80;;;;;;6189998;23;20197;-96
2024/01/14 12:01:58;;;;;;;111.00;71.73;;;7.20;69.30;;;;;;6192190;23;20652;-96
2024/01/14 12:04:32;;;;;;;151.73;100.73;;;7.30;68.80;;;;;;6195872;23;20176;-96
2024/01/14 12:07:06;;;;;;;149.77;120.10;;;6.40;68.00;;;;;;6198635;23;20182;-96
2024/01/14 12:09:58;;;;;;;116.47;68.03;;;7.20;68.70;;;;;;6198172;23;20264;-96
2024/01/14 12:12:30;;;;;;;103.03;70.20;;;7.20;69.00;;;;;;6199564;23;20253;-96
2024/01/14 12:15:05;;;;;;;149.33;105.23;;;7.20;68.70;;;;;;6203051;23;20174;-96
2024/01/14 12:17:47;;;;;;;127.30;81.37;;;7.30;69.00;;;;;;6199174;23;20180;-96
2024/01/14 12:20:24;;;;;;;92.97;58.30;;;7.30;69.00;;;;;;6202341;23;20226;-96
2024/01/14 12:23:04;;;;;;;139.00;74.97;;;7.30;68.40;;;;;;6191940;23;20181;-95
2024/01/14 12:25:39;;;;;;;140.10;74.13;;;7.30;68.80;;;;;;6197037;23;20184;-96
2024/01/14 12:28:19;;;;;;;143.27;80.53;;;6.60;67.60;;;;;;6196199;23;20428;-96
2024/01/14 12:30:59;;;;;;;140.60;77.60;;;7.40;68.70;;;;;;6193100;23;20188;-96
2024/01/14 12:34:00;;;;;;;124.87;57.60;;;7.40;68.50;;;;;;6193288;23;20175;-96
2024/01/14 12:36:31;;;;;;;126.60;68.80;;;7.40;68.80;;;;;;6193786;23;20598;-96
2024/01/14 12:38:59;;;;;;;110.37;72.20;;;7.50;68.60;;;;;;6194058;23;20207;-96
2024/01/14 12:41:48;;;;;;;127.50;77.37;;;6.60;67.90;;;;;;6196273;23;20172;-96
2024/01/14 12:47:29;;;;;;;116.73;80.63;;;7.80;69.50;;;;;;6197180;23;20199;-96
2024/01/14 12:50:16;;;;;;;90.40;64.00;;;7.40;68.80;;;;;;6199350;23;20312;-96
2024/01/14 12:53:00;;;;;;;125.23;76.27;;;7.40;69.00;;;;;;6198120;23;20642;-96
2024/01/14 12:55:37;;;;;;;127.90;84.10;;;7.40;69.40;;;;;;6198852;23;20180;-96
2024/01/14 12:58:07;;;;;;;132.13;85.57;;;7.40;69.60;;;;;;6198089;23;20255;-96
2024/01/14 13:00:38;;;;;;;117.90;86.93;;;6.90;68.90;;;;;;6195052;23;20194;-95
2024/01/14 13:03:12;;;;;;;153.37;77.77;;;7.30;69.40;;;;;;6192572;23;20172;-96
2024/01/14 13:05:47;;;;;;;135.13;74.90;;;6.60;68.70;;;;;;6196393;23;20202;-95
2024/01/14 13:08:33;;;;;;;153.87;83.23;;;7.30;69.50;;;;;;6196723;23;20172;-96
2024/01/14 13:11:08;;;;;;;131.97;72.40;;;7.30;69.20;;;;;;6198557;23;20173;-96
2024/01/14 13:13:43;;;;;;;136.10;77.50;;;6.60;68.50;;;;;;6197105;23;20171;-96
2024/01/14 13:16:15;;;;;;;145.07;71.07;;;6.70;68.40;;;;;;6198213;23;20181;-96
2024/01/14 13:21:30;;;;;;;120.80;61.67;;;7.40;69.40;;;;;;6200030;23;20226;-96
2024/01/14 13:23:59;;;;;;;116.63;65.67;;;7.40;69.40;;;;;;6203439;23;20171;-96
2024/01/14 13:26:36;;;;;;;138.10;64.27;;;7.50;69.40;;;;;;6207448;23;20207;-96
2024/01/14 13:29:07;;;;;;;99.87;66.37;;;7.30;69.40;;;;;;6208298;23;20204;-96
2024/01/14 13:31:37;;;;;;;84.40;60.93;;;7.50;69.20;;;;;;6205179;23;20164;-96
2024/01/14 13:34:15;;;;;;;120.43;60.93;;;7.50;68.90;;;;;;6198531;23;20182;-96
2024/01/14 13:36:51;;;;;;;107.73;69.00;;;7.20;69.00;;;;;;6193899;23;20519;-96
2024/01/14 13:39:28;;;;;;;110.60;84.10;;;7.50;69.10;;;;;;6193183;23;20211;-96
2024/01/14 13:42:00;;;;;;;116.23;80.77;;;7.80;69.50;;;;;;6195746;23;20165;-96
2024/01/14 13:44:42;;;;;;;128.43;84.17;;;7.60;69.10;;;;;;6194138;23;20215;-96
2024/01/14 13:47:14;;;;;;;100.17;62.77;;;7.60;68.70;;;;;;6191861;23;20212;-96
2024/01/14 13:49:47;;;;;;;139.50;83.17;;;7.90;68.70;;;;;;6186429;23;20595;-96
2024/01/14 13:52:18;;;;;;;120.70;79.17;;;7.70;68.80;;;;;;6185381;23;20283;-96
2024/01/14 13:54:51;;;;;;;110.57;59.87;;;7.70;69.10;;;;;;6185127;23;20189;-96
2024/01/14 13:57:30;;;;;;;120.53;68.93;;;7.30;68.00;;;;;;6188553;23;20191;-96
2024/01/14 14:00:24;;;;;;;115.40;65.37;;;7.70;69.00;;;;;;6189159;23;20212;-96
2024/01/14 14:03:06;;;;;;;152.20;83.20;;;7.80;68.60;;;;;;6189437;23;20192;-96
2024/01/14 14:05:41;;;;;;;146.43;77.57;;;6.70;67.70;;;;;;6189828;23;20183;-96
2024/01/14 14:08:43;;;;;;;119.03;60.23;;;7.80;68.90;;;;;;6187606;23;20173;-96
2024/01/14 14:11:11;;;;;;;141.23;76.57;;;7.80;68.70;;;;;;6187648;23;20576;-96
2024/01/14 14:13:52;;;;;;;99.90;60.93;;;7.80;68.40;;;;;;6189533;23;20178;-96
2024/01/14 14:16:38;;;;;;;116.63;79.27;;;7.90;68.90;;;;;;6193301;23;20209;-96
2024/01/14 14:19:19;;;;;;;131.30;75.20;;;7.90;69.20;;;;;;6187289;23;20205;-96
2024/01/14 14:21:55;;;;;;;131.03;62.20;;;7.80;68.90;;;;;;6187828;23;20214;-96
2024/01/14 14:24:45;;;;;;;110.40;67.20;;;7.90;68.70;;;;;;6188025;23;20266;-96
2024/01/14 14:27:24;;;;;;;116.63;77.00;;;7.00;67.90;;;;;;6203966;23;20174;-96
2024/01/14 14:29:59;;;;;;;146.40;64.87;;;7.90;68.80;;;;;;6201743;23;20213;-96
2024/01/14 14:32:35;;;;;;;147.83;75.73;;;7.90;68.60;;;;;;6203189;23;20232;-96
2024/01/14 14:35:24;;;;;;;103.60;72.57;;;7.90;68.90;;;;;;6205032;23;20177;-96
2024/01/14 14:38:13;;;;;;;125.40;72.57;;;7.90;68.90;;;;;;6205658;23;20177;-96
2024/01/14 14:40:45;;;;;;;120.47;65.20;;;7.90;68.80;;;;;;6209865;23;20217;-96
2024/01/14 14:43:49;;;;;;;83.63;51.07;;;8.00;68.60;;;;;;6209064;23;20183;-96
2024/01/14 14:46:33;;;;;;;96.77;71.77;;;8.60;69.60;;;;;;6208410;23;20153;-96
2024/01/14 14:49:11;;;;;;;104.77;68.07;;;7.40;68.30;;;;;;6206596;23;20173;-96
2024/01/14 14:52:00;;;;;;;147.20;88.67;;;8.00;68.80;;;;;;6206854;23;20213;-96
2024/01/14 14:57:41;;;;;;;110.20;65.53;;;8.00;68.50;;;;;;6207305;23;20161;-96
2024/01/14 15:00:25;;;;;;;112.53;60.33;;;8.00;68.80;;;;;;6206641;23;20193;-96
2024/01/14 15:03:10;;;;;;;116.90;76.70;;;8.00;69.00;;;;;;6205324;23;20204;-96
2024/01/14 15:06:08;;;;;;;109.40;66.47;;;8.50;69.50;;;;;;6204293;23;20181;-96
2024/01/14 15:08:41;;;;;;;95.83;63.00;;;8.00;68.50;;;;;;6205877;23;20183;-96
2024/01/14 15:11:21;;;;;;;111.93;69.63;;;8.00;68.60;;;;;;6205619;23;20190;-96
2024/01/14 15:14:24;;;;;;;121.80;67.67;;;8.00;68.50;;;;;;6208999;23;20200;-95
2024/01/14 15:20:03;;;;;;;139.37;71.77;;;7.10;67.90;;;;;;6204232;23;20196;-96
2024/01/14 15:22:50;;;;;;;127.80;74.23;;;8.00;68.40;;;;;;6200924;23;20190;-96
2024/01/14 15:25:36;;;;;;;128.47;84.20;;;8.00;68.40;;;;;;6204396;23;20157;-96
2024/01/14 15:28:26;;;;;;;102.90;65.30;;;8.00;68.30;;;;;;6204972;23;20181;-96
2024/01/14 15:31:12;;;;;;;99.50;62.27;;;7.90;68.50;;;;;;6204388;23;20233;-95
2024/01/14 15:33:47;;;;;;;113.87;55.50;;;8.10;68.60;;;;;;6198934;23;20186;-96
2024/01/14 15:36:39;;;;;;;91.63;52.60;;;7.90;68.40;;;;;;6202297;23;20191;-96
2024/01/14 15:42:37;;;;;;;98.03;60.70;;;8.80;69.30;;;;;;6188130;23;20254;-96
2024/01/14 15:45:13;;;;;;;99.20;73.27;;;7.30;67.60;;;;;;6195100;23;20178;-96
2024/01/14 15:47:44;;;;;;;124.97;72.80;;;8.00;68.30;;;;;;6192535;23;20188;-96
2024/01/14 15:50:27;;;;;;;108.43;55.07;;;7.90;68.10;;;;;;6193005;23;20169;-96
2024/01/14 15:53:00;;;;;;;95.07;71.90;;;7.70;67.90;;;;;;6196768;23;20194;-96
2024/01/14 15:55:38;;;;;;;63.00;46.03;;;7.90;68.20;;;;;;6205740;23;20165;-96
2024/01/14 15:58:15;;;;;;;86.27;61.07;;;7.90;68.40;;;;;;6193689;23;20264;-96
2024/01/14 16:01:13;;;;;;;107.47;63.90;;;7.90;68.30;;;;;;6192254;23;20198;-96
2024/01/14 16:31:42;;;;;;;99.93;46.57;;;6.60;66.90;;;;;;6132458;23;20174;-96
2024/01/14 16:34:59;;;;;;;95.83;54.00;;;6.80;67.00;;;;;;6122495;23;20202;-96
2024/01/14 16:38:22;;;;;;;68.93;44.00;;;8.00;68.00;;;;;;6135942;23;20180;-96
2024/01/14 16:47:50;;;;;;;102.07;64.83;;;8.00;68.30;;;;;;6058262;23;20166;-96
2024/01/14 16:50:39;;;;;;;97.90;61.77;;;7.90;67.60;;;;;;6142075;23;20179;-96
2024/01/14 16:56:23;;;;;;;107.60;83.30;;;7.10;67.40;;;;;;6193531;23;20228;-96
2024/01/14 16:59:05;;;;;;;93.27;61.23;;;6.60;66.70;;;;;;6208497;23;20201;-96
2024/01/14 17:01:55;;;;;;;;;;;;;;;;;;;;;
